Time;durP1;ratioP1;P1;durP2;ratioP2;P2;SDS_P1;SDS_P2;PMS_P1;PMS_P2;Temp;Humidity;BMP_temperature;BMP_pressure;BME280_temperature;BME280_humidity;BME280_pressure;Samples;Min_cycle;Max_cycle;Signal;HPM_P1;HPM_P2
2024/04/04 00:01:54;;;;;;;1.25;1.00;;;13.00;79.60;;;14.28;59.29;97241.50;5029445;28;20045;-42
2024/04/04 00:04:21;;;;;;;2.22;1.25;;;12.90;79.80;;;14.36;58.84;97240.53;5030022;28;20501;-42
2024/04/04 00:06:48;;;;;;;1.73;1.15;;;12.90;79.80;;;14.36;58.79;97246.72;5022415;28;20034;-42
2024/04/04 00:09:14;;;;;;;3.97;1.20;;;12.90;79.80;;;14.38;58.91;97242.00;5029954;28;20048;-42
2024/04/04 00:11:42;;;;;;;1.85;1.10;;;12.90;79.70;;;14.40;58.78;97249.81;5030297;28;20393;-42
2024/04/04 00:14:09;;;;;;;2.05;1.00;;;12.90;79.70;;;14.39;58.81;97250.88;5029896;28;20421;-42
2024/04/04 00:16:37;;;;;;;2.13;1.10;;;13.00;79.50;;;14.38;58.63;97239.34;5029498;28;20064;-42
2024/04/04 00:19:04;;;;;;;3.20;1.23;;;13.00;79.00;;;14.38;58.47;97239.34;5030043;28;20037;-42
2024/04/04 00:21:30;;;;;;;1.65;0.98;;;13.00;78.80;;;14.37;58.55;97243.00;5013827;28;20429;-42
2024/04/04 00:23:58;;;;;;;1.75;0.90;;;13.00;78.70;;;14.39;58.46;97240.16;5017059;28;20417;-42
2024/04/04 00:26:25;;;;;;;1.50;1.13;;;13.00;78.60;;;14.38;58.43;97242.00;5034000;28;20493;-42
2024/04/04 00:28:52;;;;;;;1.27;0.90;;;13.00;78.40;;;14.35;58.18;97245.06;5034044;28;20044;-42
2024/04/04 00:31:19;;;;;;;3.97;1.20;;;12.90;78.20;;;14.33;58.14;97249.78;5032182;28;20048;-42
2024/04/04 00:33:46;;;;;;;2.63;1.52;;;12.90;77.90;;;14.31;58.08;97242.97;5016757;28;20540;-42
2024/04/04 00:36:13;;;;;;;2.50;1.10;;;12.90;77.70;;;14.29;58.00;97250.38;5034316;28;20045;-42
2024/04/04 00:38:40;;;;;;;3.13;1.30;;;12.90;77.70;;;14.24;57.81;97250.94;5033953;28;20048;-42
2024/04/04 00:41:06;;;;;;;1.85;1.20;;;12.90;77.10;;;14.18;57.92;97249.88;5033930;28;20049;-42
2024/04/04 00:43:34;;;;;;;1.27;1.00;;;12.80;76.60;;;14.17;57.62;97244.69;5000834;28;20049;-42
2024/04/04 00:46:03;;;;;;;2.45;1.55;;;12.80;76.50;;;14.11;57.26;97250.84;5033966;28;20508;-42
2024/04/04 00:48:30;;;;;;;2.58;1.10;;;12.70;76.00;;;14.09;57.19;97258.22;5017028;28;20429;-42
2024/04/04 00:50:56;;;;;;;1.23;1.00;;;12.70;75.40;;;14.05;56.90;97255.09;5033635;28;20064;-42
2024/04/04 00:53:26;;;;;;;2.25;1.20;;;12.70;75.20;;;14.03;57.00;97242.94;5033386;28;20041;-41
2024/04/04 00:55:54;;;;;;;2.75;1.00;;;12.60;75.20;;;14.00;57.02;97252.19;5025806;28;20046;-41
2024/04/04 00:58:21;;;;;;;1.70;0.95;;;12.60;75.10;;;14.01;56.98;97250.34;5033752;28;20040;-41
2024/04/04 01:00:48;;;;;;;1.98;0.60;;;12.60;75.20;;;13.99;56.80;97246.00;5033257;28;20428;-41
2024/04/04 01:03:15;;;;;;;2.30;0.75;;;12.60;74.50;;;13.95;56.66;97242.06;5015886;28;20543;-41
2024/04/04 01:05:41;;;;;;;2.03;0.88;;;12.60;74.30;;;13.92;56.52;97246.97;5032892;28;20056;-41
2024/04/04 01:08:09;;;;;;;0.65;0.65;;;12.60;74.10;;;13.89;56.53;97250.84;5033305;28;20041;-42
2024/04/04 01:10:35;;;;;;;4.30;1.00;;;12.60;74.10;;;13.91;56.35;97248.81;5017445;28;20049;-41
2024/04/04 01:13:03;;;;;;;3.35;0.93;;;12.60;73.60;;;13.90;56.35;97241.81;5032936;28;20049;-41
2024/04/04 01:15:29;;;;;;;3.28;0.90;;;12.60;74.10;;;13.93;56.32;97248.63;5033263;28;20156;-41
2024/04/04 01:17:58;;;;;;;2.15;1.17;;;12.60;74.00;;;13.93;56.32;97248.63;5033206;28;20524;-40
2024/04/04 01:20:25;;;;;;;3.15;0.90;;;12.60;73.80;;;13.95;56.27;97255.44;5033328;28;20038;-41
2024/04/04 01:22:52;;;;;;;1.83;1.13;;;12.50;73.90;;;13.97;56.43;97248.03;5032330;28;20037;-40
2024/04/04 01:25:19;;;;;;;2.20;1.05;;;12.60;74.20;;;14.04;56.37;97258.00;5033099;28;20045;-41
2024/04/04 01:27:50;;;;;;;1.70;0.85;;;12.60;74.10;;;14.07;56.22;97252.25;5032960;28;20054;-40
2024/04/04 01:30:16;;;;;;;5.30;1.05;;;12.60;74.10;;;14.12;56.22;97258.69;5032962;28;20045;-40
2024/04/04 01:32:43;;;;;;;2.45;0.80;;;12.70;74.00;;;14.14;56.00;97253.97;4998854;28;20050;-40
2024/04/04 01:35:10;;;;;;;4.28;1.00;;;12.70;73.70;;;14.17;56.18;97264.28;5031979;28;20034;-41
2024/04/04 01:37:38;;;;;;;1.42;0.75;;;12.70;73.70;;;14.23;56.22;97256.50;5032882;28;20054;-41
2024/04/04 01:40:08;;;;;;;1.10;0.90;;;12.70;74.20;;;14.27;55.67;97252.41;5015985;28;20041;-40
2024/04/04 01:42:35;;;;;;;1.73;0.70;;;12.70;74.50;;;14.31;55.89;97261.72;5031692;28;20390;-41
2024/04/04 01:45:02;;;;;;;2.95;0.93;;;12.60;74.60;;;14.33;55.97;97257.81;5015546;28;20174;-41
2024/04/04 01:47:29;;;;;;;1.80;1.20;;;12.60;74.60;;;14.34;55.94;97259.47;5032563;28;20413;-40
2024/04/04 01:49:56;;;;;;;1.27;0.70;;;12.60;75.00;;;14.33;56.14;97260.50;5032571;28;20064;-41
2024/04/04 01:52:23;;;;;;;2.53;1.23;;;12.70;75.00;;;14.32;55.90;97253.47;5032093;28;20040;-41
2024/04/04 01:54:49;;;;;;;2.28;1.10;;;12.70;74.70;;;14.33;56.07;97257.00;5032511;28;20042;-40
2024/04/04 01:57:16;;;;;;;6.72;1.42;;;12.70;74.90;;;14.34;55.94;97255.97;5032425;28;20045;-40
2024/04/04 01:59:43;;;;;;;3.90;1.10;;;12.70;75.00;;;14.33;55.86;97247.13;5032138;28;20054;-40
2024/04/04 02:02:09;;;;;;;2.92;1.42;;;12.60;75.20;;;14.33;55.92;97252.47;5015427;28;20041;-40
2024/04/04 02:04:36;;;;;;;2.22;1.08;;;12.60;75.40;;;14.32;56.03;97250.78;5031936;28;20049;-41
2024/04/04 02:07:03;;;;;;;1.40;0.85;;;12.60;75.80;;;14.31;55.96;97249.16;5031733;28;20421;-41
2024/04/04 02:09:30;;;;;;;1.73;1.20;;;12.60;76.10;;;14.28;56.19;97251.38;5032099;28;20046;-42
2024/04/04 02:11:57;;;;;;;2.70;1.10;;;12.50;76.30;;;14.27;56.12;97249.72;5031610;28;20045;-40
2024/04/04 02:14:23;;;;;;;2.95;1.27;;;12.50;76.50;;;14.27;56.24;97242.53;5032306;28;20585;-40
2024/04/04 02:16:50;;;;;;;3.17;2.00;;;12.50;76.80;;;14.27;56.35;97247.91;5032386;28;20052;-41
2024/04/04 02:19:17;;;;;;;1.63;1.50;;;12.50;76.80;;;14.26;56.17;97245.41;5015433;28;20037;-41
2024/04/04 02:21:43;;;;;;;2.20;1.00;;;12.40;76.90;;;14.24;56.20;97244.78;5032149;28;20049;-41
2024/04/04 02:24:10;;;;;;;1.98;0.93;;;12.40;76.90;;;14.23;56.19;97241.28;5031414;28;20041;-40
2024/04/04 02:26:36;;;;;;;1.73;1.20;;;12.40;77.20;;;14.22;56.22;97236.94;5031880;28;20041;-41
2024/04/04 02:29:04;;;;;;;1.60;0.88;;;12.40;77.20;;;14.20;56.11;97233.63;5032044;28;20048;-41
2024/04/04 02:31:31;;;;;;;2.10;1.05;;;12.40;77.20;;;14.16;56.30;97238.53;5031676;28;20052;-40
2024/04/04 02:33:57;;;;;;;1.40;1.13;;;12.40;77.50;;;14.11;56.40;97238.31;5031428;28;20097;-41
2024/04/04 02:36:28;;;;;;;1.90;1.05;;;12.30;77.80;;;14.07;56.56;97233.50;5031882;28;20044;-41
2024/04/04 02:38:55;;;;;;;2.20;1.00;;;12.30;77.80;;;14.03;56.50;97235.75;5031136;28;20042;-40
2024/04/04 02:41:22;;;;;;;2.88;1.20;;;12.30;78.20;;;13.99;56.66;97237.16;5031028;28;20041;-40
2024/04/04 02:43:48;;;;;;;2.15;0.90;;;12.20;78.20;;;13.96;56.73;97237.56;5030382;28;20491;-40
2024/04/04 02:46:15;;;;;;;2.25;0.98;;;12.20;78.30;;;13.93;56.92;97241.41;5031631;28;20406;-41
2024/04/04 02:48:43;;;;;;;1.38;1.02;;;12.20;78.60;;;13.92;57.09;97234.44;5031511;28;20052;-41
2024/04/04 02:51:11;;;;;;;1.67;0.95;;;12.20;78.80;;;13.93;57.36;97236.06;5031703;28;20038;-41
2024/04/04 02:53:38;;;;;;;5.20;1.45;;;12.30;79.10;;;13.90;57.39;97235.63;5030974;28;20093;-40
2024/04/04 02:56:05;;;;;;;3.15;1.02;;;12.30;79.40;;;13.89;57.44;97229.44;5031109;28;20044;-40
2024/04/04 02:58:32;;;;;;;1.25;1.05;;;12.30;79.60;;;13.91;57.57;97234.63;5031354;28;20045;-41
2024/04/04 03:01:05;;;;;;;1.38;0.93;;;12.30;79.50;;;13.90;57.65;97228.44;5030906;28;20053;-41
2024/04/04 03:03:32;;;;;;;1.15;0.85;;;12.30;79.70;;;13.93;57.63;97229.91;5030698;28;20072;-41
2024/04/04 03:05:58;;;;;;;2.88;1.90;;;12.30;79.50;;;13.94;57.82;97229.72;5030776;28;20038;-41
2024/04/04 03:08:25;;;;;;;2.63;1.10;;;12.30;79.60;;;13.96;57.84;97226.84;5030893;28;20394;-40
2024/04/04 03:10:52;;;;;;;3.72;1.42;;;12.30;79.80;;;13.97;57.78;97236.50;5030883;28;20044;-40
2024/04/04 03:13:19;;;;;;;2.28;1.00;;;12.40;79.70;;;13.97;57.75;97236.50;5030332;28;20029;-40
2024/04/04 03:15:56;;;;;;;1.23;1.00;;;12.40;79.40;;;13.94;57.94;97228.88;5014262;28;20045;-40
2024/04/04 03:18:23;;;;;;;1.50;0.95;;;12.30;79.60;;;13.95;57.96;97233.22;5030556;28;20041;-41
2024/04/04 03:20:51;;;;;;;1.13;0.85;;;12.30;79.90;;;13.93;58.17;97222.69;5004950;28;20046;-40
2024/04/04 03:23:17;;;;;;;3.13;1.17;;;12.30;80.20;;;13.94;58.08;97224.34;5030329;28;20413;-41
2024/04/04 03:25:44;;;;;;;1.65;0.90;;;12.30;80.30;;;13.90;58.08;97228.44;5029980;28;20096;-40
2024/04/04 03:28:11;;;;;;;2.07;0.80;;;12.30;80.40;;;13.90;58.00;97227.59;5030627;28;20038;-40
2024/04/04 03:30:39;;;;;;;2.05;0.98;;;12.20;80.20;;;13.86;57.97;97229.84;5030637;28;20045;-40
2024/04/04 03:33:05;;;;;;;2.42;0.90;;;12.30;80.40;;;13.82;58.30;97227.72;5027427;28;20045;-40
2024/04/04 03:35:32;;;;;;;3.50;1.08;;;12.20;80.60;;;13.76;58.40;97227.50;5030118;28;20051;-40
2024/04/04 03:38:02;;;;;;;2.10;0.88;;;12.20;80.90;;;13.70;58.46;97230.09;5030240;28;20404;-41
2024/04/04 03:40:29;;;;;;;3.58;1.20;;;12.10;81.00;;;13.66;58.51;97228.81;5030418;28;20045;-41
2024/04/04 03:42:56;;;;;;;2.30;1.00;;;12.10;81.50;;;13.62;58.65;97233.72;5029556;28;20045;-41
2024/04/04 03:45:22;;;;;;;1.20;1.00;;;12.10;81.30;;;13.58;58.66;97227.09;5030286;28;20051;-41
2024/04/04 03:47:49;;;;;;;3.23;0.90;;;12.10;81.30;;;13.58;58.83;97227.09;5013729;28;20045;-40
2024/04/04 03:50:16;;;;;;;2.57;1.10;;;12.00;81.90;;;13.57;58.77;97223.59;5030202;28;20420;-40
2024/04/04 03:52:43;;;;;;;3.28;0.90;;;12.00;82.20;;;13.55;58.99;97230.16;5029890;28;20417;-40
2024/04/04 03:55:09;;;;;;;3.45;1.40;;;11.90;82.50;;;13.54;59.18;97225.81;5029379;28;20520;-40
2024/04/04 03:57:37;;;;;;;1.95;1.02;;;11.90;82.60;;;13.55;59.11;97232.81;5030319;28;20049;-40
2024/04/04 04:00:06;;;;;;;3.60;1.13;;;11.90;83.10;;;13.52;59.03;97234.03;5030095;28;20394;-40
2024/04/04 04:02:43;;;;;;;3.08;1.00;;;11.90;82.90;;;13.50;59.17;97228.06;5029911;28;20053;-41
2024/04/04 04:05:10;;;;;;;1.88;0.82;;;11.90;83.20;;;13.47;59.42;97223.06;5030310;28;20064;-40
2024/04/04 04:07:37;;;;;;;3.05;2.05;;;11.90;83.10;;;13.48;59.25;97218.56;5030099;28;20527;-41
2024/04/04 04:10:04;;;;;;;2.27;0.97;;;11.90;82.90;;;13.44;59.49;97219.97;5013671;28;20057;-40
2024/04/04 04:12:31;;;;;;;2.83;1.00;;;11.90;83.10;;;13.43;59.57;97213.78;5029798;28;20041;-41
2024/04/04 04:14:58;;;;;;;1.75;1.00;;;11.90;83.10;;;13.41;59.69;97223.84;5030108;28;20052;-41
2024/04/04 04:17:25;;;;;;;3.13;1.17;;;11.90;83.30;;;13.41;59.53;97213.13;5030271;28;20038;-41
2024/04/04 04:19:51;;;;;;;1.13;1.00;;;11.80;83.60;;;13.41;59.62;97210.47;5030125;28;20516;-41
2024/04/04 04:22:18;;;;;;;3.33;1.33;;;11.80;83.50;;;13.41;59.44;97217.66;5029583;28;20045;-41
2024/04/04 04:24:45;;;;;;;1.52;1.10;;;11.80;83.30;;;13.34;59.98;97213.09;5030097;28;20068;-41
2024/04/04 04:27:12;;;;;;;1.17;0.80;;;11.80;84.20;;;13.33;59.81;97224.78;5022263;28;20041;-41
2024/04/04 04:29:38;;;;;;;1.38;0.77;;;11.80;83.70;;;13.31;59.83;97218.78;5030145;28;20046;-41
2024/04/04 04:32:05;;;;;;;1.43;1.03;;;11.80;83.90;;;13.31;60.10;97217.97;5029536;28;20404;-42
2024/04/04 04:34:32;;;;;;;1.93;1.20;;;11.70;84.30;;;13.30;60.05;97208.28;5029833;28;20041;-41
2024/04/04 04:37:03;;;;;;;2.70;1.07;;;11.70;84.40;;;13.27;60.26;97224.69;5029745;28;20523;-41
2024/04/04 04:39:31;;;;;;;1.43;0.77;;;11.70;84.90;;;13.26;60.13;97223.88;5030173;28;20045;-41
2024/04/04 04:41:58;;;;;;;2.93;1.43;;;11.70;84.50;;;13.26;60.08;97225.69;5029725;28;20057;-41
2024/04/04 04:44:24;;;;;;;2.43;1.00;;;11.70;84.50;;;13.25;60.22;97226.72;5013546;28;20045;-41
2024/04/04 04:46:51;;;;;;;2.40;1.08;;;11.70;84.70;;;13.27;60.20;97227.34;5029830;28;20046;-41
2024/04/04 04:49:21;;;;;;;2.43;1.30;;;11.70;84.90;;;13.30;60.25;97225.16;5029844;28;20045;-41
2024/04/04 04:51:47;;;;;;;2.20;1.13;;;11.70;84.70;;;13.32;60.40;97220.47;5029380;28;20046;-41
2024/04/04 04:54:14;;;;;;;1.90;1.10;;;11.70;84.80;;;13.34;60.42;97223.78;5020743;28;20044;-41
2024/04/04 04:56:41;;;;;;;1.83;0.83;;;11.70;84.90;;;13.37;60.20;97222.56;5029000;28;20056;-41
2024/04/04 04:59:08;;;;;;;1.17;0.90;;;11.70;85.10;;;13.39;60.16;97225.88;5028814;28;20058;-41
2024/04/04 05:01:37;;;;;;;3.15;1.10;;;11.70;85.30;;;13.38;60.18;97224.22;5012105;28;20062;-41
2024/04/04 05:04:03;;;;;;;1.75;0.85;;;11.70;85.10;;;13.38;60.19;97226.91;5028595;28;20052;-41
2024/04/04 05:06:30;;;;;;;1.38;1.05;;;11.70;85.50;;;13.37;60.37;97207.34;5029362;28;20101;-41
2024/04/04 05:08:57;;;;;;;1.40;1.00;;;11.70;85.60;;;13.39;60.68;97201.81;5032373;28;20053;-41
2024/04/04 05:11:24;;;;;;;1.57;1.00;;;11.70;85.80;;;13.40;60.42;97200.81;5032547;28;20068;-41
2024/04/04 05:13:50;;;;;;;3.28;1.00;;;11.70;86.00;;;13.39;60.50;97199.94;5032170;28;20504;-41
2024/04/04 05:16:17;;;;;;;2.70;1.33;;;11.70;85.80;;;13.38;60.30;97190.28;5032618;28;20405;-41
2024/04/04 05:18:44;;;;;;;2.90;0.88;;;11.70;85.70;;;13.38;60.53;97192.97;5031966;28;20050;-41
2024/04/04 05:21:10;;;;;;;2.45;0.80;;;11.70;85.70;;;13.37;60.52;97201.16;5032266;28;20045;-42
2024/04/04 05:23:37;;;;;;;1.83;1.10;;;11.70;85.50;;;13.39;60.58;97196.47;5014968;28;20049;-42
2024/04/04 05:26:04;;;;;;;1.02;0.93;;;11.70;85.70;;;13.36;60.77;97189.66;5032303;28;20041;-42
2024/04/04 05:28:31;;;;;;;3.63;1.20;;;11.80;85.40;;;13.38;60.59;97194.81;5032243;28;20042;-41
2024/04/04 05:30:59;;;;;;;2.67;0.90;;;11.70;85.20;;;13.34;60.45;97194.38;5032298;28;20045;-41
2024/04/04 05:33:26;;;;;;;3.37;1.07;;;11.70;85.10;;;13.29;60.47;97191.38;5031749;28;20274;-42
2024/04/04 05:35:55;;;;;;;4.03;1.02;;;11.70;84.70;;;13.28;60.62;97191.56;5031330;28;20061;-42
2024/04/04 05:38:22;;;;;;;2.37;1.03;;;11.70;84.50;;;13.27;60.53;97189.94;5032132;28;20037;-42
2024/04/04 05:40:49;;;;;;;2.70;1.10;;;11.80;84.10;;;13.24;60.63;97191.16;5015525;28;20053;-44
2024/04/04 05:43:15;;;;;;;1.95;1.00;;;11.70;84.20;;;13.25;60.82;97187.44;5031144;28;20540;-45
2024/04/04 05:45:43;;;;;;;2.40;1.10;;;11.80;84.10;;;13.28;60.67;97178.22;5031963;28;20041;-41
2024/04/04 05:48:10;;;;;;;2.03;1.40;;;11.80;84.10;;;13.33;60.74;97191.88;5031879;28;20046;-41
2024/04/04 05:50:37;;;;;;;2.20;1.25;;;11.90;83.90;;;13.38;60.28;97195.63;5015230;28;20045;-41
2024/04/04 05:53:03;;;;;;;2.70;1.10;;;11.90;83.50;;;13.42;60.29;97188.06;5030973;28;20056;-41
2024/04/04 05:55:32;;;;;;;3.42;1.45;;;12.00;82.80;;;13.46;60.51;97188.53;5031634;28;20104;-41
2024/04/04 05:57:58;;;;;;;2.87;1.50;;;12.10;82.60;;;13.50;60.46;97171.06;5015218;28;20402;-41
2024/04/04 06:00:25;;;;;;;3.95;1.10;;;12.10;82.10;;;13.48;60.37;97173.13;5030544;28;20056;-40
2024/04/04 06:02:52;;;;;;;3.55;1.67;;;12.20;81.50;;;13.52;60.46;97169.03;5031319;28;20045;-40
2024/04/04 06:05:19;;;;;;;2.70;1.30;;;12.20;81.00;;;13.57;60.11;97178.13;5014387;28;20049;-40
2024/04/04 06:07:46;;;;;;;6.32;1.52;;;12.30;80.60;;;13.59;59.79;97169.94;5031597;28;20049;-40
2024/04/04 06:10:13;;;;;;;4.28;1.80;;;12.30;79.90;;;13.67;59.90;97177.00;5031540;28;20424;-40
2024/04/04 06:12:39;;;;;;;7.07;1.83;;;12.40;79.70;;;13.68;59.66;97163.41;5030756;28;20063;-41
2024/04/04 06:15:06;;;;;;;7.22;1.45;;;12.40;78.80;;;13.73;59.63;97171.69;5031539;28;20424;-40
2024/04/04 06:17:33;;;;;;;4.93;1.38;;;12.50;79.20;;;13.77;59.28;97164.94;5031338;28;20056;-42
2024/04/04 06:20:00;;;;;;;4.40;1.70;;;12.50;78.90;;;13.87;59.59;97167.28;5014373;28;20045;-40
2024/04/04 06:22:26;;;;;;;7.15;2.22;;;12.60;78.90;;;13.91;59.00;97159.69;5031150;28;20231;-40
2024/04/04 06:24:53;;;;;;;6.47;2.53;;;12.70;78.30;;;13.96;59.17;97159.94;5031314;28;20104;-40
2024/04/04 06:27:20;;;;;;;4.05;1.73;;;12.70;78.40;;;14.03;58.98;97160.81;5031091;28;20045;-40
2024/04/04 06:29:46;;;;;;;7.28;1.90;;;12.80;77.80;;;14.02;58.94;97156.50;5031453;28;20041;-40
2024/04/04 06:32:13;;;;;;;5.32;1.30;;;12.80;77.70;;;14.06;58.80;97149.72;5030604;28;20048;-40
2024/04/04 06:34:40;;;;;;;3.30;1.60;;;12.90;77.80;;;14.11;58.73;97159.81;5028899;28;20049;-40
2024/04/04 06:37:07;;;;;;;7.25;1.83;;;12.90;77.20;;;14.05;58.55;97147.22;5031106;28;20049;-40
2024/04/04 06:39:34;;;;;;;7.63;1.70;;;12.80;77.30;;;14.06;58.37;97149.72;5030543;28;20060;-41
2024/04/04 06:42:01;;;;;;;7.80;2.25;;;12.80;78.10;;;14.07;58.61;97163.91;5030484;28;20041;-40
2024/04/04 06:44:28;;;;;;;5.28;1.73;;;12.90;77.50;;;14.06;58.43;97155.06;5030859;28;20053;-40
2024/04/04 06:46:54;;;;;;;3.08;1.85;;;12.80;77.30;;;14.07;58.55;97146.00;5031056;28;20519;-40
2024/04/04 06:49:21;;;;;;;4.38;2.40;;;12.80;77.20;;;14.06;58.33;97157.75;5030578;28;20524;-40
2024/04/04 06:51:48;;;;;;;8.48;1.77;;;12.90;76.60;;;14.04;58.48;97149.09;5030710;28;20512;-41
2024/04/04 06:54:14;;;;;;;4.72;1.92;;;12.80;77.10;;;14.10;58.41;97164.38;5013839;28;20056;-40
2024/04/04 06:56:41;;;;;;;7.45;2.28;;;12.90;77.40;;;14.16;58.46;97158.22;5030641;28;20048;-41
2024/04/04 06:59:08;;;;;;;5.32;1.58;;;12.90;77.10;;;14.22;58.43;97161.97;5030247;28;20045;-40
2024/04/04 07:01:34;;;;;;;5.65;1.60;;;13.00;77.00;;;14.33;58.38;97149.91;5030959;28;20436;-40
2024/04/04 07:04:01;;;;;;;4.07;1.58;;;13.20;76.60;;;14.40;58.11;97163.31;5013454;28;20048;-40
2024/04/04 07:06:28;;;;;;;5.97;1.50;;;13.30;75.50;;;14.46;57.90;97170.56;5022637;28;20502;-41
2024/04/04 07:08:55;;;;;;;3.88;1.55;;;13.40;75.40;;;14.51;57.68;97170.78;5030720;28;20068;-40
2024/04/04 07:11:22;;;;;;;5.55;2.58;;;13.50;74.80;;;14.53;57.76;97187.50;5025673;28;20048;-40
2024/04/04 07:13:48;;;;;;;5.57;2.90;;;13.50;74.30;;;14.62;57.32;97190.84;5029893;28;20061;-40
2024/04/04 07:16:15;;;;;;;7.10;3.42;;;13.60;74.20;;;14.64;57.10;97189.66;5030416;28;20044;-40
2024/04/04 07:18:42;;;;;;;6.50;3.35;;;13.60;73.30;;;14.74;57.04;97186.59;5030348;28;20041;-40
2024/04/04 07:21:08;;;;;;;5.53;2.22;;;13.70;73.70;;;14.73;57.03;97185.78;5030257;28;20424;-40
2024/04/04 07:23:35;;;;;;;7.25;2.00;;;13.70;73.60;;;14.79;57.03;97186.00;5029878;28;20413;-40
2024/04/04 07:26:03;;;;;;;7.03;2.15;;;13.80;73.60;;;14.85;56.62;97193.25;5029924;28;20049;-40
2024/04/04 07:28:30;;;;;;;5.25;2.33;;;13.80;72.50;;;14.81;56.63;97200.88;5021830;28;20042;-41
2024/04/04 07:30:58;;;;;;;4.15;1.77;;;13.80;72.90;;;14.82;56.49;97209.72;5030177;28;20049;-40
2024/04/04 07:33:25;;;;;;;8.75;2.30;;;13.70;72.70;;;14.81;56.74;97218.78;5029382;28;20038;-41
2024/04/04 07:35:51;;;;;;;6.38;3.75;;;13.60;74.10;;;14.77;57.14;97235.28;5030015;28;20045;-41
2024/04/04 07:38:18;;;;;;;4.25;1.90;;;13.60;74.60;;;14.77;57.47;97226.38;5029659;28;20053;-41
2024/04/04 07:40:46;;;;;;;3.20;1.67;;;13.60;75.00;;;14.69;57.52;97222.00;5029141;28;20393;-41
2024/04/04 07:43:12;;;;;;;5.57;2.30;;;13.50;75.60;;;14.68;57.59;97225.75;5012793;28;20046;-41
2024/04/04 07:45:42;;;;;;;8.50;1.70;;;13.40;76.00;;;14.70;57.45;97241.63;5029374;28;20492;-41
2024/04/04 07:48:14;;;;;;;3.42;1.52;;;13.50;75.80;;;14.63;57.65;97235.38;5029398;28;20591;-41
2024/04/04 07:50:41;;;;;;;6.20;1.60;;;13.40;76.10;;;14.59;57.71;97231.44;5013444;28;20064;-41
2024/04/04 07:53:08;;;;;;;6.32;1.55;;;13.30;76.50;;;14.60;57.76;97233.09;5029367;28;20041;-41
2024/04/04 07:55:35;;;;;;;5.63;1.90;;;13.40;76.60;;;14.59;58.06;97240.31;5029714;28;20033;-41
2024/04/04 07:58:03;;;;;;;8.52;2.25;;;13.40;76.80;;;14.55;57.87;97245.19;5029662;28;20034;-41
2024/04/04 08:00:31;;;;;;;5.00;1.67;;;13.40;77.00;;;14.60;57.74;97254.53;5029460;28;20413;-40
2024/04/04 08:02:59;;;;;;;3.53;1.48;;;13.30;76.40;;;14.59;57.81;97250.19;5029199;28;20037;-40
2024/04/04 08:05:29;;;;;;;4.90;1.63;;;13.40;76.50;;;14.59;57.89;97245.66;5029580;28;20056;-40
2024/04/04 08:07:56;;;;;;;3.53;1.60;;;13.40;76.30;;;14.60;57.70;97249.16;5013408;28;20053;-40
2024/04/04 08:10:22;;;;;;;7.35;2.38;;;13.30;76.40;;;14.60;57.72;97258.03;5029096;28;20045;-40
2024/04/04 08:12:51;;;;;;;5.80;1.38;;;13.30;76.60;;;14.51;57.61;97260.00;5012818;28;20408;-40
2024/04/04 08:15:18;;;;;;;6.25;1.45;;;13.30;76.30;;;14.55;57.51;97247.88;5029236;28;20473;-40
2024/04/04 08:17:48;;;;;;;8.18;2.45;;;13.30;76.90;;;14.65;57.46;97252.09;5029147;28;20048;-40
2024/04/04 08:20:16;;;;;;;4.80;1.75;;;13.40;75.70;;;14.69;57.46;97267.56;5029264;28;20072;-41
2024/04/04 08:22:46;;;;;;;5.43;2.10;;;13.40;75.70;;;14.70;57.29;97265.72;5028593;28;20056;-41
2024/04/04 08:25:14;;;;;;;4.80;1.50;;;13.40;74.70;;;14.73;57.01;97257.28;5029172;28;20064;-41
2024/04/04 08:27:42;;;;;;;3.85;1.52;;;13.40;74.80;;;14.70;56.98;97269.22;5029366;28;20037;-41
2024/04/04 08:30:09;;;;;;;4.88;2.45;;;13.40;75.00;;;14.72;56.97;97272.53;5029119;28;20038;-41
2024/04/04 08:32:35;;;;;;;3.22;1.60;;;13.40;74.70;;;14.72;56.96;97282.44;5028528;28;20501;-40
2024/04/04 08:35:02;;;;;;;6.43;2.05;;;13.50;75.30;;;14.74;57.10;97281.22;5029345;28;20390;-41
2024/04/04 08:37:29;;;;;;;4.00;2.40;;;13.50;75.50;;;14.73;57.09;97282.25;5028339;28;20531;-41
2024/04/04 08:39:55;;;;;;;8.50;2.55;;;13.50;75.40;;;14.72;57.44;97282.44;5028655;28;20045;-41
2024/04/04 08:42:26;;;;;;;5.60;2.10;;;13.40;76.50;;;14.77;57.62;97285.34;5030579;28;20044;-41
2024/04/04 08:44:56;;;;;;;10.88;2.65;;;13.50;76.90;;;14.82;57.73;97288.25;5016897;28;20389;-41
2024/04/04 08:47:25;;;;;;;5.90;2.25;;;13.50;77.00;;;14.85;57.56;97276.31;5033068;28;20056;-41
2024/04/04 08:49:52;;;;;;;8.30;2.22;;;13.60;76.80;;;14.84;57.78;97277.34;5016560;28;20041;-41
2024/04/04 08:52:19;;;;;;;5.60;1.65;;;13.60;77.20;;;14.87;57.83;97287.66;5032252;28;20049;-41
2024/04/04 08:54:45;;;;;;;6.15;1.73;;;13.60;77.40;;;14.86;57.86;97292.19;5032983;28;20041;-41
2024/04/04 08:57:12;;;;;;;2.95;1.70;;;13.60;77.20;;;14.82;57.80;97276.72;5032922;28;20033;-41
2024/04/04 08:59:39;;;;;;;5.00;1.67;;;13.60;77.20;;;14.83;57.97;97281.03;5025358;28;20053;-41
2024/04/04 09:02:07;;;;;;;6.13;1.77;;;13.50;77.80;;;14.83;58.29;97289.09;5032379;28;20207;-41
2024/04/04 09:04:33;;;;;;;4.18;1.80;;;13.50;78.30;;;14.84;58.14;97282.72;5032561;28;20053;-41
2024/04/04 09:07:00;;;;;;;5.05;2.90;;;13.50;78.10;;;14.85;58.33;97293.25;5032574;28;20045;-41
2024/04/04 09:09:27;;;;;;;2.03;1.38;;;13.50;78.20;;;14.80;58.46;97297.53;5015944;28;20413;-41
2024/04/04 09:11:54;;;;;;;6.07;1.67;;;13.50;79.00;;;14.76;58.43;97295.25;5032110;28;20444;-41
2024/04/04 09:14:21;;;;;;;4.63;2.50;;;13.40;78.90;;;14.76;58.62;97286.38;5032471;28;20444;-41
2024/04/04 09:16:48;;;;;;;3.72;2.10;;;13.40;79.20;;;14.76;58.67;97294.41;5032602;28;20512;-41
2024/04/04 09:19:17;;;;;;;3.40;1.70;;;13.40;79.30;;;14.74;59.00;97291.94;5016035;28;20040;-40
2024/04/04 09:21:45;;;;;;;4.15;2.13;;;13.50;80.30;;;14.77;59.36;97304.09;5024695;28;20037;-40
2024/04/04 09:24:13;;;;;;;5.82;1.67;;;13.40;80.80;;;14.77;59.35;97299.59;5032105;28;20416;-40
2024/04/04 09:26:41;;;;;;;5.35;2.03;;;13.50;80.30;;;14.71;59.60;97310.25;5032039;28;20060;-40
2024/04/04 09:29:09;;;;;;;6.07;1.70;;;13.40;81.60;;;14.70;59.82;97316.63;5032233;28;20049;-40
2024/04/04 09:31:38;;;;;;;10.82;2.65;;;13.40;82.30;;;14.73;60.04;97308.19;5032215;28;20052;-40
2024/04/04 09:34:05;;;;;;;5.13;2.45;;;13.40;82.90;;;14.75;59.99;97312.34;5027786;28;20086;-41
2024/04/04 09:36:33;;;;;;;5.70;2.55;;;13.50;82.30;;;14.79;60.09;97306.59;5030842;28;20505;-41
2024/04/04 09:39:02;;;;;;;7.22;2.00;;;13.50;82.40;;;14.82;60.21;97322.28;5031958;28;20037;-40
2024/04/04 09:41:30;;;;;;;5.20;1.77;;;13.50;82.80;;;14.83;60.11;97307.84;5031956;28;20049;-40
2024/04/04 09:43:58;;;;;;;4.35;1.70;;;13.50;82.60;;;14.84;60.50;97317.56;5031559;28;20420;-41
2024/04/04 09:46:26;;;;;;;4.35;1.58;;;13.50;83.40;;;14.85;60.61;97314.69;5015522;28;20520;-41
2024/04/04 09:48:53;;;;;;;4.60;2.15;;;13.50;83.10;;;14.87;60.44;97312.63;5031903;28;20047;-40
2024/04/04 09:51:21;;;;;;;3.50;1.48;;;13.50;83.50;;;14.85;60.71;97301.28;5031645;28;20045;-41
2024/04/04 09:53:49;;;;;;;6.85;2.80;;;13.50;83.90;;;14.84;61.01;97304.97;5029818;28;20044;-40
2024/04/04 09:56:20;;;;;;;6.50;1.75;;;13.50;85.00;;;14.89;61.00;97291.81;5031429;28;20041;-40
2024/04/04 09:58:47;;;;;;;3.88;2.42;;;13.50;85.30;;;14.94;61.25;97307.31;5015176;28;20041;-41
2024/04/04 10:01:20;;;;;;;4.35;1.98;;;13.60;85.10;;;14.99;61.04;97302.19;5015749;28;20129;-40
2024/04/04 10:03:53;;;;;;;9.15;2.25;;;13.60;85.20;;;15.03;61.15;97307.97;5023370;28;20369;-40
2024/04/04 10:06:43;;;;;;;5.13;2.50;;;13.70;84.50;;;15.06;60.93;97310.25;5031396;28;20045;-41
2024/04/04 10:09:21;;;;;;;7.43;2.65;;;13.70;84.20;;;15.09;61.02;97315.22;5031287;28;20060;-41
2024/04/04 10:11:49;;;;;;;7.65;2.13;;;13.80;84.60;;;15.09;61.07;97302.66;5023531;28;20463;-42
2024/04/04 10:14:21;;;;;;;5.85;2.00;;;13.70;85.10;;;15.16;61.01;97308.06;5031138;28;20037;-42
2024/04/04 10:16:55;;;;;;;3.20;2.17;;;13.80;84.80;;;15.18;61.15;97313.19;5006819;28;20148;-42
2024/04/04 10:19:24;;;;;;;6.20;1.75;;;13.80;84.40;;;15.17;61.03;97315.06;5031373;28;20045;-42
2024/04/04 10:21:51;;;;;;;4.72;2.00;;;13.80;84.60;;;15.23;61.18;97310.75;5031300;28;20045;-42